createdAt,value
2017-12-25T00:02:16.329Z,99.90
2017-12-25T00:04:44.743Z,99.90
2017-12-25T00:07:13.107Z,99.90
2017-12-25T00:09:41.471Z,99.90
2017-12-25T00:12:09.870Z,99.90
2017-12-25T00:14:38.235Z,99.90
2017-12-25T00:17:06.599Z,99.90
2017-12-25T00:19:35.002Z,99.90
2017-12-25T00:22:03.385Z,99.90
2017-12-25T00:24:31.774Z,99.90
2017-12-25T00:27:00.198Z,99.90
2017-12-25T00:29:29.338Z,99.90
2017-12-25T00:31:57.706Z,99.90
2017-12-25T00:34:26.102Z,99.90
2017-12-25T00:36:54.491Z,99.90
2017-12-25T00:39:22.854Z,99.90
2017-12-25T00:41:51.257Z,99.90
2017-12-25T00:44:19.629Z,99.90
2017-12-25T00:46:47.998Z,99.90
2017-12-25T00:49:16.404Z,99.90
2017-12-25T00:51:45.543Z,99.90
2017-12-25T00:54:13.913Z,99.90
2017-12-25T00:56:42.331Z,99.90
2017-12-25T00:59:10.709Z,99.90
2017-12-25T01:01:39.079Z,99.90
2017-12-25T01:04:07.475Z,99.90
2017-12-25T01:06:35.840Z,99.90
2017-12-25T01:09:04.981Z,99.90
2017-12-25T01:11:34.151Z,99.90
2017-12-25T01:14:02.513Z,99.90
2017-12-25T01:16:30.883Z,99.90
2017-12-25T01:18:59.281Z,99.90
2017-12-25T01:21:27.650Z,99.90
2017-12-25T01:23:56.115Z,99.90
2017-12-25T01:26:26.153Z,99.90
2017-12-25T01:28:54.520Z,99.90
2017-12-25T01:31:22.891Z,99.90
2017-12-25T01:33:51.309Z,99.90
2017-12-25T01:36:19.669Z,99.90
2017-12-25T01:38:48.035Z,99.90
2017-12-25T01:41:16.470Z,99.90
2017-12-25T01:43:45.586Z,99.90
2017-12-25T01:46:13.945Z,99.90
2017-12-25T01:48:42.347Z,99.90
2017-12-25T01:51:10.718Z,99.90
2017-12-25T01:53:41.049Z,99.90
2017-12-25T01:56:15.866Z,99.90
2017-12-25T01:58:53.046Z,99.90
2017-12-25T02:02:11.943Z,99.90
2017-12-25T02:08:01.607Z,99.90
2017-12-25T02:10:29.976Z,99.90
2017-12-25T02:12:58.340Z,99.90
2017-12-25T02:15:27.533Z,99.90
2017-12-25T02:17:56.670Z,99.90
2017-12-25T02:20:25.040Z,99.90
2017-12-25T02:22:53.438Z,99.90
2017-12-25T02:25:21.807Z,99.90
2017-12-25T02:27:50.193Z,99.90
2017-12-25T02:30:18.591Z,99.90
2017-12-25T02:32:46.954Z,99.90
2017-12-25T02:35:15.326Z,99.90
2017-12-25T02:37:43.740Z,99.90
2017-12-25T02:40:12.106Z,99.90
2017-12-25T02:42:40.475Z,99.90
2017-12-25T02:45:08.887Z,99.90
2017-12-25T02:47:38.039Z,99.90
2017-12-25T02:50:06.400Z,99.90
2017-12-25T02:52:34.821Z,99.90
2017-12-25T02:55:03.194Z,99.90
2017-12-25T02:57:31.557Z,99.90
2017-12-25T02:59:59.987Z,99.90
2017-12-25T03:02:29.122Z,99.90
2017-12-25T03:04:57.486Z,99.90
2017-12-25T03:07:25.886Z,99.90
2017-12-25T03:09:54.245Z,99.90
2017-12-25T03:12:22.613Z,99.90
2017-12-25T03:14:51.015Z,99.90
2017-12-25T03:17:19.382Z,99.90
2017-12-25T03:19:47.765Z,99.90
2017-12-25T03:22:16.168Z,99.90
2017-12-25T03:24:44.537Z,99.90
2017-12-25T03:27:12.968Z,99.90
2017-12-25T03:29:42.134Z,99.90
2017-12-25T03:32:10.493Z,99.90
2017-12-25T03:34:39.625Z,99.90
2017-12-25T03:37:08.017Z,99.90
2017-12-25T03:39:37.148Z,99.90
2017-12-25T03:42:05.510Z,99.90
2017-12-25T03:44:34.780Z,99.90
2017-12-25T03:47:03.916Z,99.90
2017-12-25T03:49:32.276Z,99.90
2017-12-25T03:52:00.670Z,99.90
2017-12-25T03:54:29.036Z,99.90
2017-12-25T03:56:57.427Z,99.90
2017-12-25T03:59:25.822Z,99.90
2017-12-25T04:01:54.192Z,99.90
2017-12-25T04:04:22.570Z,99.90
2017-12-25T04:06:50.977Z,99.90
2017-12-25T04:09:19.345Z,99.90
2017-12-25T04:11:47.834Z,99.90
2017-12-25T04:14:16.227Z,99.90
2017-12-25T04:16:44.587Z,99.90
2017-12-25T04:19:12.951Z,99.90
2017-12-25T04:21:41.346Z,99.90
2017-12-25T04:24:09.733Z,99.90
2017-12-25T04:26:38.106Z,99.90
2017-12-25T04:29:06.523Z,99.90
2017-12-25T04:31:35.665Z,99.90
2017-12-25T04:34:04.027Z,99.90
2017-12-25T04:36:32.422Z,99.90
2017-12-25T04:39:00.782Z,99.90
2017-12-25T04:41:29.149Z,99.90
2017-12-25T04:43:57.544Z,99.90
2017-12-25T04:46:25.907Z,99.90
2017-12-25T04:48:54.278Z,99.90
2017-12-25T04:51:22.693Z,99.90
2017-12-25T04:53:51.059Z,99.90
2017-12-25T04:56:19.432Z,99.90
2017-12-25T04:58:47.950Z,99.90
2017-12-25T05:01:16.321Z,99.90
2017-12-25T05:03:44.692Z,99.90
2017-12-25T05:06:13.086Z,99.90
2017-12-25T05:08:41.454Z,99.90
2017-12-25T05:11:09.821Z,99.90
2017-12-25T05:13:38.226Z,99.90
2017-12-25T05:16:06.590Z,99.90
2017-12-25T05:18:34.967Z,99.90
2017-12-25T05:21:03.384Z,99.90
2017-12-25T05:23:32.523Z,99.90
2017-12-25T05:26:00.899Z,99.90
2017-12-25T05:28:29.299Z,99.90
2017-12-25T05:30:57.671Z,99.90
2017-12-25T05:33:26.043Z,99.90
2017-12-25T05:35:54.450Z,99.90
2017-12-25T05:38:22.814Z,99.90
2017-12-25T05:40:51.202Z,99.90
2017-12-25T05:43:19.623Z,99.90
2017-12-25T05:45:47.990Z,99.90
2017-12-25T05:48:17.122Z,99.90
2017-12-25T05:50:45.522Z,99.90
2017-12-25T05:53:13.892Z,99.90
2017-12-25T05:55:42.260Z,99.90
2017-12-25T05:58:10.678Z,99.90
2017-12-25T06:00:39.060Z,99.90
2017-12-25T06:03:07.419Z,99.90
2017-12-25T06:05:35.822Z,99.90
2017-12-25T06:08:04.201Z,99.90
2017-12-25T06:10:32.566Z,99.90
2017-12-25T06:13:00.961Z,99.90
2017-12-25T06:15:30.097Z,99.90
2017-12-25T06:17:58.468Z,99.90
2017-12-25T06:20:26.879Z,99.90
2017-12-25T06:22:55.247Z,99.90
2017-12-25T06:25:23.625Z,99.90
2017-12-25T06:27:52.041Z,99.90
2017-12-25T06:30:20.403Z,99.90
2017-12-25T06:32:48.771Z,99.90
2017-12-25T06:35:17.174Z,99.90
2017-12-25T06:37:45.543Z,99.90
2017-12-25T06:40:13.919Z,99.90
2017-12-25T06:42:42.333Z,99.90
2017-12-25T06:45:11.472Z,99.90
2017-12-25T06:47:39.848Z,99.90
2017-12-25T06:50:08.422Z,99.90
2017-12-25T06:52:36.790Z,99.90
2017-12-25T06:55:05.190Z,99.90
2017-12-25T06:57:33.610Z,99.90
2017-12-25T07:00:01.984Z,99.90
2017-12-25T07:02:30.448Z,99.90
2017-12-25T07:04:58.866Z,99.90
2017-12-25T07:07:28.007Z,99.90
2017-12-25T07:09:56.382Z,99.90
2017-12-25T07:12:25.069Z,99.90
2017-12-25T07:14:53.438Z,99.90
2017-12-25T07:17:21.814Z,99.90
2017-12-25T07:19:50.220Z,99.90
2017-12-25T07:22:18.586Z,99.90
2017-12-25T07:24:46.979Z,99.90
2017-12-25T07:27:15.398Z,99.90
2017-12-25T07:29:44.547Z,99.90
2017-12-25T07:32:12.919Z,99.90
2017-12-25T07:34:41.328Z,99.90
2017-12-25T07:37:10.474Z,99.90
2017-12-25T07:39:38.849Z,99.90
2017-12-25T07:42:07.238Z,99.90
2017-12-25T07:44:35.606Z,99.90
2017-12-25T07:47:04.055Z,99.90
2017-12-25T07:49:33.332Z,99.90
2017-12-25T07:52:01.700Z,99.90
2017-12-25T07:54:30.073Z,99.90
2017-12-25T07:56:58.504Z,99.90
2017-12-25T07:59:27.650Z,99.90
2017-12-25T08:01:56.782Z,99.90
2017-12-25T08:04:25.967Z,99.90
2017-12-25T08:06:54.339Z,99.90
2017-12-25T08:09:22.706Z,99.90
2017-12-25T08:11:51.139Z,99.90
2017-12-25T08:14:19.531Z,99.90
2017-12-25T08:16:47.903Z,99.90
2017-12-25T08:19:16.313Z,99.90
2017-12-25T08:21:44.687Z,99.90
2017-12-25T08:24:13.066Z,99.90
2017-12-25T08:26:41.481Z,99.90
2017-12-25T08:29:10.614Z,99.90
2017-12-25T08:31:38.982Z,99.90
2017-12-25T08:34:07.594Z,99.90
2017-12-25T08:36:35.958Z,99.90
2017-12-25T08:39:04.370Z,99.90
2017-12-25T08:41:32.790Z,99.90
2017-12-25T08:44:01.924Z,99.90
2017-12-25T08:46:30.291Z,99.90
2017-12-25T08:48:58.693Z,99.90
2017-12-25T08:51:27.068Z,99.90
2017-12-25T08:53:55.439Z,99.90
2017-12-25T08:56:23.854Z,99.90
2017-12-25T08:58:52.262Z,99.90
2017-12-25T09:01:21.471Z,99.90
2017-12-25T09:03:49.878Z,99.90
2017-12-25T09:06:18.256Z,99.90
2017-12-25T09:08:46.625Z,99.90
2017-12-25T09:11:15.058Z,99.90
2017-12-25T09:13:44.195Z,99.90
2017-12-25T09:16:12.591Z,99.90
2017-12-25T09:18:41.301Z,99.90
2017-12-25T09:21:09.742Z,99.90
2017-12-25T09:23:38.123Z,99.90
2017-12-25T09:26:06.567Z,99.90
2017-12-25T09:28:35.698Z,99.90
2017-12-25T09:31:04.067Z,99.90
2017-12-25T09:33:32.510Z,99.90
2017-12-25T09:36:01.665Z,99.90
2017-12-25T09:38:30.027Z,99.90
2017-12-25T09:40:58.431Z,99.90
2017-12-25T09:43:26.796Z,99.90
2017-12-25T09:45:55.167Z,99.90
2017-12-25T09:48:23.575Z,99.90
2017-12-25T09:50:51.946Z,99.90
2017-12-25T09:53:20.550Z,99.90
2017-12-25T09:55:49.966Z,99.90
2017-12-25T09:58:19.118Z,99.90
2017-12-25T10:00:48.378Z,99.90
2017-12-25T10:03:17.881Z,99.90
2017-12-25T10:05:47.046Z,99.90
2017-12-25T10:08:15.564Z,99.90
2017-12-25T10:10:44.198Z,99.90
2017-12-25T10:13:12.750Z,99.90
2017-12-25T10:15:41.261Z,99.90
2017-12-25T10:18:10.469Z,99.90
2017-12-25T10:20:38.889Z,99.90
2017-12-25T10:23:07.287Z,99.90
2017-12-25T10:25:36.027Z,99.90
2017-12-25T10:28:04.391Z,99.90
2017-12-25T10:30:32.754Z,99.90
2017-12-25T10:33:01.156Z,99.90
2017-12-25T10:35:29.518Z,99.90
2017-12-25T10:37:57.937Z,99.90
2017-12-25T10:40:27.110Z,99.90
2017-12-25T10:42:55.498Z,99.90
2017-12-25T10:45:24.687Z,99.90
2017-12-25T10:47:53.134Z,99.90
2017-12-25T10:50:21.531Z,99.90
2017-12-25T10:52:50.698Z,99.90
2017-12-25T10:55:19.134Z,99.90
2017-12-25T10:57:48.281Z,99.90
2017-12-25T11:00:16.668Z,99.90
2017-12-25T11:02:45.079Z,99.90
2017-12-25T11:05:13.457Z,99.90
2017-12-25T11:07:41.876Z,99.90
2017-12-25T11:10:10.355Z,99.90
2017-12-25T11:12:38.746Z,99.90
2017-12-25T11:15:07.130Z,99.90
2017-12-25T11:17:35.551Z,99.90
2017-12-25T11:20:03.974Z,99.90
2017-12-25T11:22:32.418Z,99.90
2017-12-25T11:25:00.900Z,99.90
2017-12-25T11:27:30.041Z,99.90
2017-12-25T11:29:58.403Z,99.90
2017-12-25T11:32:26.820Z,99.90
2017-12-25T11:34:55.229Z,99.90
2017-12-25T11:37:23.603Z,99.90
2017-12-25T11:39:52.001Z,99.90
2017-12-25T11:42:21.149Z,98.60
2017-12-25T11:44:49.514Z,98.60
2017-12-25T11:47:17.918Z,95.00
2017-12-25T11:49:46.294Z,93.00
2017-12-25T11:52:14.849Z,90.00
2017-12-25T11:54:43.302Z,86.10
2017-12-25T11:57:12.516Z,81.90
2017-12-25T11:59:40.914Z,81.80
2017-12-25T12:02:09.343Z,78.30
2017-12-25T12:04:38.483Z,71.60
2017-12-25T12:07:06.855Z,71.60
2017-12-25T12:09:35.325Z,71.10
2017-12-25T12:12:03.716Z,69.90
2017-12-25T12:14:32.100Z,71.10
2017-12-25T12:17:00.530Z,72.60
2017-12-25T12:19:28.926Z,73.60
2017-12-25T12:21:58.066Z,75.40
2017-12-25T12:24:26.481Z,75.50
2017-12-25T12:26:54.851Z,75.90
2017-12-25T12:29:23.300Z,79.80
2017-12-25T12:31:51.718Z,80.70
2017-12-25T12:34:20.102Z,82.70
2017-12-25T12:36:48.468Z,84.30
2017-12-25T12:39:16.895Z,86.30
2017-12-25T12:41:45.267Z,89.00
2017-12-25T12:44:13.633Z,89.80
2017-12-25T12:46:42.802Z,92.30
2017-12-25T12:49:11.177Z,92.30
2017-12-25T12:51:39.562Z,92.50
2017-12-25T12:54:07.970Z,93.40
2017-12-25T12:56:36.342Z,92.80
2017-12-25T12:59:05.483Z,93.30
2017-12-25T13:01:34.169Z,93.30
2017-12-25T13:04:02.586Z,94.60
2017-12-25T13:06:30.955Z,94.30
2017-12-25T13:08:59.373Z,95.90
2017-12-25T13:11:27.748Z,95.70
2017-12-25T13:13:56.167Z,94.70
2017-12-25T13:16:24.623Z,95.20
2017-12-25T13:18:53.136Z,97.20
2017-12-25T13:21:21.661Z,97.00
2017-12-25T13:23:50.160Z,97.90
2017-12-25T13:26:18.549Z,98.50
2017-12-25T13:28:47.066Z,99.00
2017-12-25T13:31:15.475Z,99.10
2017-12-25T13:33:44.606Z,99.90
2017-12-25T13:36:12.978Z,99.90
2017-12-25T13:38:41.381Z,99.90
2017-12-25T13:41:10.524Z,99.90
2017-12-25T13:43:39.652Z,99.90
2017-12-25T13:46:08.074Z,99.90
2017-12-25T13:48:36.658Z,99.90
2017-12-25T13:51:05.827Z,99.90
2017-12-25T13:53:34.612Z,99.90
2017-12-25T13:56:02.971Z,99.90
2017-12-25T13:58:31.330Z,99.90
2017-12-25T14:01:00.494Z,99.90
2017-12-25T14:03:28.898Z,99.90
2017-12-25T14:05:58.055Z,99.90
2017-12-25T14:08:26.500Z,99.90
2017-12-25T14:10:54.955Z,99.90
2017-12-25T14:13:24.109Z,99.90
2017-12-25T14:15:53.311Z,99.90
2017-12-25T14:18:21.728Z,99.90
2017-12-25T14:20:50.114Z,99.90
2017-12-25T14:23:19.272Z,99.90
2017-12-25T14:25:47.652Z,99.90
2017-12-25T14:28:16.024Z,99.90
2017-12-25T14:30:44.741Z,99.90
2017-12-25T14:33:13.952Z,99.90
2017-12-25T14:35:43.091Z,99.90
2017-12-25T14:38:11.549Z,99.90
2017-12-25T14:40:39.984Z,99.90
2017-12-25T14:43:08.354Z,99.90
2017-12-25T14:45:37.442Z,99.90
2017-12-25T14:48:05.903Z,99.90
2017-12-25T14:50:34.285Z,99.90
2017-12-25T14:53:02.742Z,99.90
2017-12-25T14:55:31.153Z,99.90
2017-12-25T14:57:59.538Z,99.90
2017-12-25T15:00:27.963Z,99.90
2017-12-25T15:02:57.373Z,99.90
2017-12-25T15:05:26.539Z,99.90
2017-12-25T15:07:54.935Z,99.90
2017-12-25T15:10:24.087Z,99.90
2017-12-25T15:12:52.465Z,99.90
2017-12-25T15:15:20.895Z,99.90
2017-12-25T15:17:50.057Z,99.90
2017-12-25T15:20:18.554Z,99.90
2017-12-25T15:22:46.953Z,99.90
2017-12-25T15:25:15.321Z,99.90
2017-12-25T15:27:44.508Z,99.90
2017-12-25T15:30:13.713Z,99.90
2017-12-25T15:32:42.851Z,99.90
2017-12-25T15:35:11.238Z,99.90
2017-12-25T15:37:39.674Z,99.90
2017-12-25T15:40:08.901Z,99.90
2017-12-25T15:42:37.300Z,99.90
2017-12-25T15:45:06.777Z,99.90
2017-12-25T15:47:35.217Z,99.90
2017-12-25T15:50:03.607Z,99.90
2017-12-25T15:52:32.842Z,99.90
2017-12-25T15:55:01.288Z,99.90
2017-12-25T15:57:30.712Z,99.90
2017-12-25T15:59:59.161Z,99.90
2017-12-25T16:02:28.294Z,99.90
2017-12-25T16:04:56.667Z,99.90
2017-12-25T16:07:25.080Z,99.90
2017-12-25T16:09:53.453Z,99.90
2017-12-25T16:12:21.823Z,99.90
2017-12-25T16:14:50.217Z,99.90
2017-12-25T16:17:18.581Z,99.90
2017-12-25T16:19:47.067Z,99.90
2017-12-25T16:22:15.474Z,99.90
2017-12-25T16:24:43.852Z,99.90
2017-12-25T16:27:12.228Z,99.90
2017-12-25T16:29:40.634Z,99.90
2017-12-25T16:32:09.775Z,99.90
2017-12-25T16:34:38.442Z,99.90
2017-12-25T16:37:06.854Z,99.90
2017-12-25T16:39:35.993Z,99.90
2017-12-25T16:42:04.375Z,99.90
2017-12-25T16:44:33.559Z,99.90
2017-12-25T16:47:02.734Z,99.90
2017-12-25T16:49:31.464Z,99.90
2017-12-25T16:52:01.164Z,99.90
2017-12-25T16:54:29.655Z,99.90
2017-12-25T16:56:58.107Z,99.90
2017-12-25T16:59:27.582Z,99.90
2017-12-25T17:01:56.385Z,99.90
2017-12-25T17:04:25.909Z,99.90
2017-12-25T17:06:54.625Z,99.90
2017-12-25T17:09:23.072Z,99.90
2017-12-25T17:11:51.471Z,99.90
2017-12-25T17:14:20.089Z,99.90
2017-12-25T17:16:48.526Z,99.90
2017-12-25T17:19:17.676Z,99.90
2017-12-25T17:21:46.366Z,99.90
2017-12-25T17:24:14.818Z,99.90
2017-12-25T17:26:43.294Z,99.90
2017-12-25T17:29:12.513Z,99.90
2017-12-25T17:31:41.097Z,99.90
2017-12-25T17:34:09.492Z,99.90
2017-12-25T17:36:37.909Z,99.90
2017-12-25T17:39:07.264Z,99.90
2017-12-25T17:41:35.719Z,99.90
2017-12-25T17:44:04.130Z,99.90
2017-12-25T17:46:32.509Z,99.90
2017-12-25T17:49:00.906Z,99.90
2017-12-25T17:51:29.647Z,99.90
2017-12-25T17:53:58.128Z,99.90
2017-12-25T17:56:26.640Z,99.90
2017-12-25T17:58:55.092Z,99.90
2017-12-25T18:01:23.561Z,99.90
2017-12-25T18:03:52.153Z,99.90
2017-12-25T18:06:21.749Z,99.90
2017-12-25T18:08:50.361Z,99.90
2017-12-25T18:11:19.562Z,99.90
2017-12-25T18:13:48.027Z,99.90
2017-12-25T18:16:16.588Z,99.90
2017-12-25T18:18:45.091Z,99.90
2017-12-25T18:21:13.536Z,99.90
2017-12-25T18:23:43.042Z,99.90
2017-12-25T18:26:11.444Z,99.90
2017-12-25T18:28:39.997Z,99.90
2017-12-25T18:31:09.200Z,99.90
2017-12-25T18:33:37.580Z,99.90
2017-12-25T18:36:06.186Z,99.90
2017-12-25T18:38:34.698Z,99.90
2017-12-25T18:41:03.394Z,99.90
2017-12-25T18:43:32.210Z,99.90
2017-12-25T18:46:01.638Z,99.90
2017-12-25T18:48:30.356Z,99.90
2017-12-25T18:50:59.172Z,99.90
2017-12-25T18:53:28.546Z,99.90
2017-12-25T18:55:57.090Z,99.90
2017-12-25T18:58:25.593Z,99.90
2017-12-25T19:00:54.357Z,99.90
2017-12-25T19:03:22.885Z,99.90
2017-12-25T19:05:51.798Z,99.90
2017-12-25T19:08:20.302Z,99.90
2017-12-25T19:10:48.960Z,99.90
2017-12-25T19:13:17.549Z,99.90
2017-12-25T19:15:46.091Z,99.90
2017-12-25T19:18:14.519Z,99.90
2017-12-25T19:20:42.988Z,99.90
2017-12-25T19:23:11.879Z,99.90
2017-12-25T19:25:40.510Z,99.90
2017-12-25T19:28:09.014Z,99.90
2017-12-25T19:30:37.654Z,99.90
2017-12-25T19:33:06.115Z,99.90
2017-12-25T19:35:36.757Z,99.90
2017-12-25T19:38:05.371Z,99.90
2017-12-25T19:40:33.905Z,99.90
2017-12-25T19:43:02.358Z,99.90
2017-12-25T19:45:30.749Z,99.90
2017-12-25T19:47:59.169Z,99.90
2017-12-25T19:50:28.384Z,99.90
2017-12-25T19:52:56.847Z,99.90
2017-12-25T19:55:25.605Z,99.90
2017-12-25T19:57:54.375Z,99.90
2017-12-25T20:00:23.644Z,99.90
2017-12-25T20:02:52.076Z,99.90
2017-12-25T20:05:21.564Z,99.90
2017-12-25T20:07:50.940Z,99.90
2017-12-25T20:10:19.652Z,99.90
2017-12-25T20:12:48.994Z,99.90
2017-12-25T20:15:18.211Z,99.90
2017-12-25T20:17:46.772Z,99.90
2017-12-25T20:20:16.044Z,99.90
2017-12-25T20:22:44.751Z,99.90
2017-12-25T20:25:13.311Z,99.90
2017-12-25T20:27:42.040Z,99.90
2017-12-25T20:30:10.653Z,99.90
2017-12-25T20:32:39.203Z,99.90
2017-12-25T20:35:07.817Z,99.90
2017-12-25T20:37:36.384Z,99.90
2017-12-25T20:40:05.021Z,99.90
2017-12-25T20:42:33.499Z,99.90
2017-12-25T20:45:02.316Z,99.90
2017-12-25T20:47:31.090Z,99.90
2017-12-25T20:50:00.188Z,99.90
2017-12-25T20:52:30.869Z,99.90
2017-12-25T20:54:59.635Z,99.90
2017-12-25T20:57:28.542Z,99.90
2017-12-25T20:59:58.042Z,99.90
2017-12-25T21:02:26.722Z,99.90
2017-12-25T21:04:55.499Z,99.90
2017-12-25T21:07:24.436Z,99.90
2017-12-25T21:09:54.911Z,99.90
2017-12-25T21:12:23.868Z,99.90
2017-12-25T21:14:53.476Z,99.90
2017-12-25T21:17:23.144Z,99.90
2017-12-25T21:19:51.926Z,99.90
2017-12-25T21:22:20.665Z,99.90
2017-12-25T21:24:50.392Z,99.90
2017-12-25T21:27:19.448Z,99.90
2017-12-25T21:29:49.046Z,99.90
2017-12-25T21:32:18.525Z,99.90
2017-12-25T21:34:47.586Z,99.90
2017-12-25T21:37:16.380Z,99.90
2017-12-25T21:39:45.352Z,99.90
2017-12-25T21:42:13.994Z,99.90
2017-12-25T21:44:42.641Z,99.90
2017-12-25T21:47:11.378Z,99.90
2017-12-25T21:49:39.888Z,99.90
2017-12-25T21:52:08.538Z,99.90
2017-12-25T21:54:37.790Z,99.90
2017-12-25T21:57:06.490Z,99.90
2017-12-25T21:59:35.152Z,99.90
2017-12-25T22:02:03.715Z,99.90
2017-12-25T22:04:32.365Z,99.90
2017-12-25T22:07:01.049Z,99.90
2017-12-25T22:09:29.464Z,99.90
2017-12-25T22:11:57.975Z,99.90
2017-12-25T22:14:26.413Z,99.90
2017-12-25T22:16:54.821Z,99.90
2017-12-25T22:19:23.226Z,99.90
2017-12-25T22:21:51.669Z,99.90
2017-12-25T22:24:20.267Z,99.90
2017-12-25T22:26:49.432Z,99.90
2017-12-25T22:29:17.846Z,99.90
2017-12-25T22:31:47.173Z,99.90
2017-12-25T22:34:15.562Z,99.90
2017-12-25T22:36:43.971Z,99.90
2017-12-25T22:39:12.368Z,99.90
2017-12-25T22:41:40.752Z,99.90
2017-12-25T22:44:09.148Z,99.90
2017-12-25T22:46:38.299Z,99.90
2017-12-25T22:49:07.465Z,99.90
2017-12-25T22:51:35.862Z,99.90
2017-12-25T22:54:04.239Z,99.90
2017-12-25T22:56:32.641Z,99.90
2017-12-25T22:59:01.087Z,99.90
2017-12-25T23:01:29.565Z,99.90
2017-12-25T23:03:57.943Z,99.90
2017-12-25T23:06:26.424Z,99.90
2017-12-25T23:08:54.967Z,99.90
2017-12-25T23:11:23.344Z,99.90
2017-12-25T23:13:51.982Z,99.90
2017-12-25T23:16:20.450Z,99.90
2017-12-25T23:18:48.839Z,99.90
2017-12-25T23:21:17.241Z,99.90
2017-12-25T23:23:45.610Z,99.90
2017-12-25T23:26:14.117Z,99.90
2017-12-25T23:28:42.522Z,99.90
2017-12-25T23:31:11.722Z,99.90
2017-12-25T23:33:41.051Z,99.90
2017-12-25T23:36:09.445Z,99.90
2017-12-25T23:38:37.872Z,99.90
2017-12-25T23:41:07.038Z,99.90
2017-12-25T23:43:35.410Z,99.90
2017-12-25T23:46:03.802Z,99.90
2017-12-25T23:48:32.178Z,99.90
2017-12-25T23:51:00.613Z,99.90
2017-12-25T23:53:28.990Z,99.90
2017-12-25T23:55:57.367Z,99.90
2017-12-25T23:58:25.762Z,99.90
